createdAt,value
2018-07-23T00:01:48.153Z,46.05
2018-07-23T00:04:16.219Z,44.80
2018-07-23T00:06:44.293Z,45.95
2018-07-23T00:09:12.500Z,44.73
2018-07-23T00:11:40.531Z,48.50
2018-07-23T00:14:08.723Z,48.25
2018-07-23T00:16:36.809Z,47.75
2018-07-23T00:19:04.956Z,46.92
2018-07-23T00:21:33.244Z,46.05
2018-07-23T00:24:01.320Z,45.63
2018-07-23T00:26:29.377Z,45.08
2018-07-23T00:28:57.464Z,45.87
2018-07-23T00:31:25.677Z,46.23
2018-07-23T00:33:53.794Z,47.50
2018-07-23T00:36:22.109Z,48.52
2018-07-23T00:38:50.173Z,46.90
2018-07-23T00:41:18.361Z,47.25
2018-07-23T00:43:46.411Z,46.50
2018-07-23T00:46:14.469Z,47.70
2018-07-23T00:48:43.048Z,47.10
2018-07-23T00:51:10.825Z,45.78
2018-07-23T00:53:39.039Z,46.20
2018-07-23T00:56:07.098Z,46.80
2018-07-23T00:58:35.194Z,44.60
2018-07-23T01:01:03.220Z,45.95
2018-07-23T01:03:31.308Z,43.70
2018-07-23T01:05:59.493Z,42.62
2018-07-23T01:08:27.564Z,45.05
2018-07-23T01:10:55.643Z,46.70
2018-07-23T01:13:23.722Z,46.77
2018-07-23T01:15:51.776Z,46.30
2018-07-23T01:18:19.828Z,46.67
2018-07-23T01:20:47.936Z,43.63
2018-07-23T01:23:16.024Z,44.25
2018-07-23T01:25:44.050Z,46.08
2018-07-23T01:28:12.413Z,44.65
2018-07-23T01:30:40.319Z,44.33
2018-07-23T01:33:08.476Z,44.18
2018-07-23T01:35:36.581Z,44.33
2018-07-23T01:38:04.723Z,44.85
2018-07-23T01:40:32.916Z,45.15
2018-07-23T01:43:01.201Z,46.03
2018-07-23T01:45:29.356Z,45.60
2018-07-23T01:47:58.056Z,44.03
2018-07-23T01:50:26.207Z,44.53
2018-07-23T01:52:54.014Z,44.80
2018-07-23T01:55:22.092Z,46.23
2018-07-23T01:57:50.212Z,48.50
2018-07-23T02:00:18.123Z,50.20
2018-07-23T02:02:46.377Z,47.55
2018-07-23T02:05:14.558Z,48.10
2018-07-23T02:07:42.652Z,50.23
2018-07-23T02:10:10.712Z,50.70
2018-07-23T02:12:39.043Z,49.95
2018-07-23T02:15:07.171Z,48.75
2018-07-23T02:17:35.236Z,48.60
2018-07-23T02:20:04.081Z,48.02
2018-07-23T02:22:32.217Z,48.20
2018-07-23T02:25:00.263Z,47.67
2018-07-23T02:27:28.393Z,47.65
2018-07-23T02:29:56.400Z,47.08
2018-07-23T02:32:24.510Z,46.95
2018-07-23T02:34:52.657Z,49.20
2018-07-23T02:37:20.773Z,49.10
2018-07-23T02:39:48.690Z,50.50
2018-07-23T02:42:16.704Z,47.95
2018-07-23T02:44:44.882Z,48.63
2018-07-23T02:47:13.014Z,47.65
2018-07-23T02:49:41.233Z,49.58
2018-07-23T02:52:18.204Z,48.20
2018-07-23T02:54:49.306Z,49.15
2018-07-23T02:57:25.420Z,49.42
2018-07-23T02:59:56.337Z,50.38
2018-07-23T03:02:26.590Z,49.67
2018-07-23T03:04:57.809Z,50.50
2018-07-23T03:07:26.072Z,49.50
2018-07-23T03:09:54.249Z,51.88
2018-07-23T03:12:22.765Z,50.23
2018-07-23T03:14:51.061Z,49.33
2018-07-23T03:17:19.102Z,52.53
2018-07-23T03:19:47.180Z,51.33
2018-07-23T03:22:15.261Z,50.73
2018-07-23T03:24:43.314Z,51.20
2018-07-23T03:27:11.677Z,51.80
2018-07-23T03:29:39.687Z,52.17
2018-07-23T03:32:07.844Z,53.40
2018-07-23T03:34:35.803Z,52.30
2018-07-23T03:37:04.019Z,52.27
2018-07-23T03:39:32.190Z,51.20
2018-07-23T03:42:00.252Z,52.53
2018-07-23T03:44:28.440Z,52.40
2018-07-23T03:46:56.581Z,54.35
2018-07-23T03:49:24.673Z,52.30
2018-07-23T03:51:52.933Z,51.80
2018-07-23T03:54:21.032Z,51.42
2018-07-23T03:56:49.102Z,51.68
2018-07-23T03:59:17.191Z,51.80
2018-07-23T04:01:45.359Z,51.00
2018-07-23T04:04:16.229Z,51.83
2018-07-23T04:06:46.144Z,50.40
2018-07-23T04:09:14.148Z,48.40
2018-07-23T04:11:42.245Z,49.20
2018-07-23T04:14:13.085Z,48.87
2018-07-23T04:16:41.088Z,48.48
2018-07-23T04:19:09.342Z,49.85
2018-07-23T04:21:37.508Z,48.28
2018-07-23T04:24:05.735Z,50.78
2018-07-23T04:26:33.859Z,49.45
2018-07-23T04:29:01.907Z,49.85
2018-07-23T04:31:29.722Z,51.00
2018-07-23T04:33:57.867Z,49.38
2018-07-23T04:36:25.981Z,48.23
2018-07-23T04:38:54.031Z,47.75
2018-07-23T04:41:22.094Z,48.87
2018-07-23T04:43:50.178Z,49.25
2018-07-23T04:46:18.397Z,48.35
2018-07-23T04:48:46.532Z,49.08
2018-07-23T04:51:14.574Z,49.67
2018-07-23T04:53:42.652Z,50.10
2018-07-23T04:56:10.721Z,48.23
2018-07-23T04:58:38.909Z,48.92
2018-07-23T05:01:06.964Z,48.25
2018-07-23T05:03:35.164Z,47.83
2018-07-23T05:06:03.530Z,47.35
2018-07-23T05:08:31.644Z,45.98
2018-07-23T05:10:59.889Z,45.83
2018-07-23T05:13:28.074Z,46.40
2018-07-23T05:15:56.183Z,44.42
2018-07-23T05:18:24.193Z,45.65
2018-07-23T05:20:52.283Z,47.67
2018-07-23T05:23:20.364Z,46.58
2018-07-23T05:25:48.420Z,45.73
2018-07-23T05:28:16.518Z,45.53
2018-07-23T05:30:44.477Z,45.80
2018-07-23T05:33:12.675Z,43.38
2018-07-23T05:35:40.830Z,43.20
2018-07-23T05:38:08.912Z,43.58
2018-07-23T05:40:37.091Z,40.70
2018-07-23T05:43:05.466Z,41.23
2018-07-23T05:45:33.610Z,42.10
2018-07-23T05:48:01.715Z,41.08
2018-07-23T05:50:29.961Z,40.75
2018-07-23T05:52:57.964Z,37.90
2018-07-23T05:55:26.018Z,38.98
2018-07-23T05:57:54.512Z,39.10
2018-07-23T06:00:22.575Z,38.78
2018-07-23T06:02:50.675Z,38.63
2018-07-23T06:05:18.748Z,39.95
2018-07-23T06:07:46.784Z,37.83
2018-07-23T06:10:15.111Z,40.73
2018-07-23T06:12:43.235Z,38.55
2018-07-23T06:15:11.653Z,39.13
2018-07-23T06:17:39.723Z,36.35
2018-07-23T06:20:08.720Z,39.00
2018-07-23T06:22:37.058Z,37.53
2018-07-23T06:25:05.169Z,35.95
2018-07-23T06:27:33.437Z,36.40
2018-07-23T06:30:01.650Z,38.35
2018-07-23T06:32:29.765Z,37.58
2018-07-23T06:34:58.076Z,35.65
2018-07-23T06:37:26.239Z,36.28
2018-07-23T06:39:54.324Z,36.10
2018-07-23T06:42:22.396Z,35.78
2018-07-23T06:44:50.646Z,36.10
2018-07-23T06:47:18.753Z,35.93
2018-07-23T06:49:46.798Z,37.55
2018-07-23T06:52:14.894Z,39.60
2018-07-23T06:54:42.927Z,40.23
2018-07-23T06:57:10.861Z,36.90
2018-07-23T06:59:39.026Z,37.70
2018-07-23T07:02:07.164Z,36.60
2018-07-23T07:04:35.254Z,36.70
2018-07-23T07:07:03.746Z,38.53
2018-07-23T07:09:31.893Z,35.95
2018-07-23T07:11:59.979Z,37.15
2018-07-23T07:14:28.050Z,38.73
2018-07-23T07:16:56.232Z,40.05
2018-07-23T07:19:24.290Z,37.85
2018-07-23T07:21:52.497Z,36.77
2018-07-23T07:24:20.566Z,35.90
2018-07-23T07:26:48.712Z,37.05
2018-07-23T07:29:16.807Z,35.03
2018-07-23T07:31:45.098Z,35.90
2018-07-23T07:34:13.241Z,35.58
2018-07-23T07:36:41.332Z,36.95
2018-07-23T07:39:11.164Z,37.67
2018-07-23T07:41:39.366Z,37.33
2018-07-23T07:44:08.130Z,36.30
2018-07-23T07:46:36.713Z,37.53
2018-07-23T07:49:04.900Z,38.28
2018-07-23T07:51:33.148Z,38.40
2018-07-23T07:54:01.205Z,38.45
2018-07-23T07:56:29.795Z,38.50
2018-07-23T07:58:57.863Z,37.93
2018-07-23T08:01:26.092Z,38.63
2018-07-23T08:03:54.141Z,36.13
2018-07-23T08:06:22.383Z,36.08
2018-07-23T08:08:50.607Z,36.33
2018-07-23T08:11:18.679Z,35.50
2018-07-23T08:13:47.036Z,35.85
2018-07-23T08:16:15.234Z,35.40
2018-07-23T08:18:43.472Z,34.92
2018-07-23T08:21:11.565Z,34.27
2018-07-23T08:23:39.640Z,35.90
2018-07-23T08:26:07.812Z,35.25
2018-07-23T08:28:35.988Z,35.85
2018-07-23T08:31:04.267Z,38.70
2018-07-23T08:33:32.455Z,38.40
2018-07-23T08:36:00.521Z,39.27
2018-07-23T08:38:28.818Z,40.25
2018-07-23T08:40:57.186Z,40.47
2018-07-23T08:43:25.361Z,41.15
2018-07-23T08:45:53.420Z,41.50
2018-07-23T08:48:21.464Z,41.53
2018-07-23T08:50:49.567Z,40.85
2018-07-23T08:53:17.629Z,43.75
2018-07-23T08:55:45.736Z,43.95
2018-07-23T08:58:13.872Z,41.77
2018-07-23T09:00:42.068Z,43.27
2018-07-23T09:03:10.152Z,42.33
2018-07-23T09:05:38.309Z,42.20
2018-07-23T09:08:06.519Z,44.08
2018-07-23T09:10:34.578Z,41.35
2018-07-23T09:13:02.624Z,43.33
2018-07-23T09:15:30.814Z,42.05
2018-07-23T09:17:58.965Z,42.33
2018-07-23T09:20:27.073Z,43.35
2018-07-23T09:22:55.116Z,42.67
2018-07-23T09:25:26.880Z,41.95
2018-07-23T09:27:54.943Z,40.30
2018-07-23T09:30:28.393Z,41.73
2018-07-23T09:32:56.545Z,40.45
2018-07-23T09:35:24.597Z,40.28
2018-07-23T09:37:52.687Z,40.00
2018-07-23T09:40:20.831Z,38.57
2018-07-23T09:42:48.740Z,41.63
2018-07-23T09:45:16.802Z,40.60
2018-07-23T09:47:44.900Z,41.05
2018-07-23T09:50:13.183Z,41.40
2018-07-23T09:52:41.364Z,39.35
2018-07-23T09:55:09.541Z,37.55
2018-07-23T09:57:37.580Z,38.02
2018-07-23T10:00:05.853Z,37.35
2018-07-23T10:02:33.929Z,37.20
2018-07-23T10:05:02.012Z,35.85
2018-07-23T10:07:30.168Z,36.83
2018-07-23T10:09:58.366Z,35.63
2018-07-23T10:12:26.507Z,37.80
2018-07-23T10:14:54.438Z,35.40
2018-07-23T10:17:22.648Z,35.25
2018-07-23T10:19:51.111Z,32.88
2018-07-23T10:22:19.230Z,38.35
2018-07-23T10:24:47.323Z,36.77
2018-07-23T10:27:15.463Z,36.42
2018-07-23T10:29:43.780Z,32.95
2018-07-23T10:32:11.927Z,32.45
2018-07-23T10:34:40.189Z,33.80
2018-07-23T10:37:08.412Z,32.63
2018-07-23T10:39:36.550Z,34.45
2018-07-23T10:42:04.746Z,32.20
2018-07-23T10:44:32.928Z,32.08
2018-07-23T10:47:00.989Z,32.00
2018-07-23T10:49:29.074Z,31.65
2018-07-23T10:51:57.120Z,31.80
2018-07-23T10:54:25.208Z,30.57
2018-07-23T10:56:53.461Z,32.00
2018-07-23T10:59:21.775Z,29.97
2018-07-23T11:01:50.054Z,28.62
2018-07-23T11:04:18.248Z,28.15
2018-07-23T11:06:46.272Z,25.75
2018-07-23T11:09:14.484Z,30.70
2018-07-23T11:11:42.625Z,31.65
2018-07-23T11:14:10.725Z,30.80
2018-07-23T11:16:38.780Z,29.30
2018-07-23T11:19:07.084Z,30.30
2018-07-23T11:21:35.142Z,27.00
2018-07-23T11:24:03.231Z,28.02
2018-07-23T11:26:31.301Z,27.22
2018-07-23T11:28:59.382Z,27.13
2018-07-23T11:31:27.419Z,26.07
2018-07-23T11:33:55.517Z,26.90
2018-07-23T11:36:23.545Z,28.85
2018-07-23T11:38:51.356Z,28.65
2018-07-23T11:41:19.513Z,26.50
2018-07-23T11:43:47.709Z,27.13
2018-07-23T11:46:24.425Z,26.68
2018-07-23T11:48:43.965Z,23.40
2018-07-23T11:51:12.210Z,22.58
2018-07-23T11:53:40.424Z,22.70
2018-07-23T11:56:08.454Z,24.30
2018-07-23T11:58:36.781Z,24.20
2018-07-23T12:01:04.835Z,25.02
2018-07-23T12:03:32.912Z,26.68
2018-07-23T12:06:01.084Z,23.60
2018-07-23T12:08:29.227Z,23.62
2018-07-23T12:10:57.385Z,22.22
2018-07-23T12:13:25.294Z,21.40
2018-07-23T12:15:53.552Z,20.50
2018-07-23T12:18:21.758Z,20.00
2018-07-23T12:20:49.911Z,20.90
2018-07-23T12:23:18.006Z,18.73
2018-07-23T12:25:46.088Z,18.37
2018-07-23T12:28:14.120Z,19.35
2018-07-23T12:30:42.303Z,21.15
2018-07-23T12:33:10.369Z,19.90
2018-07-23T12:35:38.667Z,19.60
2018-07-23T12:38:06.722Z,20.27
2018-07-23T12:40:34.811Z,19.73
2018-07-23T12:43:02.873Z,20.40
2018-07-23T12:45:30.944Z,19.90
2018-07-23T12:47:59.082Z,20.35
2018-07-23T12:50:27.199Z,19.15
2018-07-23T12:52:55.284Z,19.55
2018-07-23T12:55:23.372Z,18.90
2018-07-23T12:57:51.534Z,18.37
2018-07-23T13:00:19.606Z,20.25
2018-07-23T13:02:47.785Z,20.27
2018-07-23T13:05:15.969Z,18.55
2018-07-23T13:07:44.018Z,19.00
2018-07-23T13:10:12.124Z,17.05
2018-07-23T13:12:40.286Z,18.95
2018-07-23T13:15:08.549Z,19.37
2018-07-23T13:17:36.734Z,18.52
2018-07-23T13:20:05.006Z,18.30
2018-07-23T13:22:33.183Z,18.02
2018-07-23T13:25:01.253Z,18.13
2018-07-23T13:27:29.405Z,17.87
2018-07-23T13:29:57.416Z,18.50
2018-07-23T13:32:25.567Z,19.15
2018-07-23T13:34:53.761Z,18.45
2018-07-23T13:37:21.805Z,19.12
2018-07-23T13:39:50.112Z,18.30
2018-07-23T13:42:18.180Z,18.53
2018-07-23T13:44:46.244Z,18.70
2018-07-23T13:47:14.542Z,18.70
2018-07-23T13:49:42.601Z,18.98
2018-07-23T13:52:10.684Z,17.97
2018-07-23T13:54:38.828Z,17.27
2018-07-23T13:57:06.925Z,19.00
2018-07-23T13:59:34.968Z,18.65
2018-07-23T14:02:03.183Z,17.67
2018-07-23T14:04:31.231Z,18.50
2018-07-23T14:06:59.445Z,17.50
2018-07-23T14:09:27.477Z,18.62
2018-07-23T14:11:55.664Z,17.57
2018-07-23T14:14:23.726Z,17.45
2018-07-23T14:16:51.946Z,16.82
2018-07-23T14:19:20.020Z,17.67
2018-07-23T14:21:48.159Z,17.25
2018-07-23T14:24:16.249Z,17.05
2018-07-23T14:26:44.514Z,16.70
2018-07-23T14:29:12.616Z,15.48
2018-07-23T14:31:41.161Z,15.70
2018-07-23T14:34:09.508Z,16.10
2018-07-23T14:36:37.510Z,16.00
2018-07-23T14:39:08.933Z,17.52
2018-07-23T14:41:37.033Z,16.30
2018-07-23T14:44:05.317Z,16.40
2018-07-23T14:46:33.514Z,16.75
2018-07-23T14:49:01.808Z,16.57
2018-07-23T14:51:30.287Z,15.95
2018-07-23T14:53:58.432Z,16.02
2018-07-23T14:56:26.659Z,17.10
2018-07-23T14:58:54.854Z,17.40
2018-07-23T15:01:22.978Z,16.95
2018-07-23T15:03:51.025Z,16.97
2018-07-23T15:06:19.148Z,17.75
2018-07-23T15:08:47.298Z,17.95
2018-07-23T15:11:15.384Z,16.48
2018-07-23T15:13:43.426Z,16.50
2018-07-23T15:16:11.533Z,16.82
2018-07-23T15:18:39.591Z,16.90
2018-07-23T15:21:07.672Z,16.02
2018-07-23T15:23:36.464Z,16.80
2018-07-23T15:26:04.549Z,15.70
2018-07-23T15:28:32.705Z,17.17
2018-07-23T15:31:00.755Z,16.50
2018-07-23T15:33:28.713Z,15.50
2018-07-23T15:35:56.676Z,16.00
2018-07-23T15:38:24.496Z,16.70
2018-07-23T15:40:52.405Z,16.77
2018-07-23T15:43:20.401Z,16.60
2018-07-23T15:45:48.291Z,17.73
2018-07-23T15:56:33.211Z,18.42
2018-07-23T15:59:01.476Z,17.50
2018-07-23T16:01:29.388Z,17.55
2018-07-23T16:03:57.868Z,17.12
2018-07-23T16:06:36.935Z,16.55
2018-07-23T16:09:21.411Z,15.20
2018-07-23T16:14:41.716Z,15.60
2018-07-23T16:22:54.160Z,14.30
2018-07-23T16:25:21.937Z,14.33
2018-07-23T16:27:49.666Z,15.05
2018-07-23T16:30:17.676Z,14.47
2018-07-23T16:32:45.620Z,14.07
2018-07-23T16:35:13.581Z,13.60
2018-07-23T16:37:41.547Z,13.97
2018-07-23T16:40:09.650Z,14.18
2018-07-23T16:42:37.640Z,14.00
2018-07-23T16:45:05.599Z,14.25
2018-07-23T16:47:33.340Z,15.03
2018-07-23T16:50:01.313Z,15.95
2018-07-23T16:52:29.262Z,15.85
2018-07-23T16:54:57.351Z,16.00
2018-07-23T16:57:25.320Z,15.77
2018-07-23T16:59:53.286Z,14.35
2018-07-23T17:02:21.320Z,15.45
2018-07-23T17:04:49.371Z,16.82
2018-07-23T17:07:17.488Z,19.90
2018-07-23T17:09:45.523Z,25.10
2018-07-23T17:12:13.544Z,21.15
2018-07-23T17:14:41.556Z,10.10
2018-07-23T17:17:09.363Z,12.93
2018-07-23T17:19:37.335Z,14.07
2018-07-23T17:22:05.311Z,18.25
2018-07-23T17:24:33.235Z,23.40
2018-07-23T17:27:01.161Z,27.80
2018-07-23T17:29:29.173Z,36.77
2018-07-23T17:31:57.092Z,29.85
2018-07-23T17:34:25.077Z,35.20
2018-07-23T17:36:53.061Z,35.03
2018-07-23T17:39:21.065Z,34.73
2018-07-23T17:41:49.553Z,31.20
2018-07-23T17:44:17.552Z,30.90
2018-07-23T17:46:45.456Z,30.83
2018-07-23T17:49:13.381Z,36.58
2018-07-23T17:51:41.344Z,33.00
2018-07-23T17:54:22.083Z,27.02
2018-07-23T17:56:50.452Z,31.07
2018-07-23T17:59:18.369Z,33.70
2018-07-23T18:01:46.305Z,30.23
2018-07-23T18:04:14.035Z,31.10
2018-07-23T18:06:41.991Z,28.67
2018-07-23T18:09:11.739Z,24.00
2018-07-23T18:11:39.692Z,22.73
2018-07-23T18:14:08.075Z,27.27
2018-07-23T18:16:36.161Z,25.95
2018-07-23T18:19:04.080Z,24.60
2018-07-23T18:21:32.010Z,25.45
2018-07-23T18:23:59.935Z,26.25
2018-07-23T18:26:28.137Z,26.00
2018-07-23T18:28:55.963Z,25.25
2018-07-23T18:31:24.958Z,23.10
2018-07-23T18:33:52.891Z,20.57
2018-07-23T18:36:20.691Z,21.40
2018-07-23T18:38:48.808Z,20.90
2018-07-23T18:41:16.651Z,21.90
2018-07-23T18:43:44.956Z,21.48
2018-07-23T18:46:12.902Z,23.00
2018-07-23T18:49:19.560Z,24.70
2018-07-23T18:51:52.423Z,24.05
2018-07-23T18:54:24.164Z,24.03
2018-07-23T18:56:56.704Z,24.70
2018-07-23T18:59:28.751Z,23.73
2018-07-23T19:02:01.015Z,25.62
2018-07-23T19:04:32.836Z,25.80
2018-07-23T19:07:04.354Z,25.27
2018-07-23T19:09:36.214Z,26.85
2018-07-23T19:12:08.489Z,25.90
2018-07-23T19:14:40.832Z,25.75
2018-07-23T19:17:14.257Z,27.02
2018-07-23T19:19:46.607Z,25.73
2018-07-23T19:22:19.066Z,25.95
2018-07-23T19:24:50.079Z,26.73
2018-07-23T19:27:22.551Z,26.27
2018-07-23T19:29:54.533Z,26.17
2018-07-23T19:32:26.723Z,25.50
2018-07-23T19:34:58.363Z,24.50
2018-07-23T19:37:29.443Z,24.70
2018-07-23T19:40:01.266Z,26.27
2018-07-23T19:42:32.844Z,25.67
2018-07-23T19:45:06.182Z,25.75
2018-07-23T19:47:37.726Z,25.90
2018-07-23T19:50:09.529Z,27.25
2018-07-23T19:52:40.537Z,27.10
2018-07-23T19:55:12.298Z,27.55
2018-07-23T19:57:43.722Z,29.00
2018-07-23T20:00:14.326Z,28.33
2018-07-23T20:02:42.055Z,28.65
2018-07-23T20:05:10.031Z,29.25
2018-07-23T20:07:37.908Z,27.47
2018-07-23T20:10:05.860Z,27.77
2018-07-23T20:12:33.778Z,22.90
2018-07-23T20:15:01.517Z,23.30
2018-07-23T20:17:37.169Z,24.43
2018-07-23T20:20:06.562Z,22.87
2018-07-23T20:22:51.254Z,24.90
2018-07-23T20:25:19.172Z,26.77
2018-07-23T20:27:47.065Z,26.48
2018-07-23T20:30:15.004Z,27.65
2018-07-23T20:32:42.986Z,27.02
2018-07-23T20:35:10.998Z,26.35
2018-07-23T20:37:38.792Z,26.30
2018-07-23T20:40:06.817Z,26.10
2018-07-23T20:42:34.725Z,22.73
2018-07-23T20:45:02.678Z,23.35
2018-07-23T20:47:30.600Z,22.05
2018-07-23T20:49:58.560Z,21.10
2018-07-23T20:52:26.536Z,21.10
2018-07-23T20:54:54.497Z,21.45
2018-07-23T20:57:22.453Z,20.60
2018-07-23T20:59:50.447Z,20.88
2018-07-23T21:02:18.405Z,19.82
2018-07-23T21:04:46.329Z,21.00
2018-07-23T21:07:14.256Z,21.35
2018-07-23T21:09:42.201Z,20.05
2018-07-23T21:12:10.181Z,19.20
2018-07-23T21:14:38.108Z,18.10
2018-07-23T21:17:06.124Z,19.87
2018-07-23T21:19:34.045Z,18.73
2018-07-23T21:22:01.998Z,19.27
2018-07-23T21:24:29.956Z,19.30
2018-07-23T21:26:57.897Z,19.85
2018-07-23T21:29:25.918Z,20.33
2018-07-23T21:31:53.880Z,19.52
2018-07-23T21:34:21.811Z,20.60
2018-07-23T21:36:49.704Z,19.70
2018-07-23T21:39:17.656Z,20.10
2018-07-23T21:41:45.587Z,20.00
2018-07-23T21:44:13.520Z,19.12
2018-07-23T21:46:41.536Z,20.05
2018-07-23T21:49:09.547Z,19.70
2018-07-23T21:51:37.496Z,19.35
2018-07-23T21:54:05.536Z,18.55
2018-07-23T21:56:33.432Z,17.80
2018-07-23T21:59:01.398Z,17.23
2018-07-23T22:01:29.180Z,18.10
2018-07-23T22:03:57.209Z,18.50
2018-07-23T22:06:25.235Z,17.60
2018-07-23T22:08:55.489Z,17.65
2018-07-23T22:11:23.482Z,17.13
2018-07-23T22:13:51.453Z,17.50
2018-07-23T22:16:19.395Z,16.55
2018-07-23T22:18:47.328Z,17.35
2018-07-23T22:21:15.090Z,17.35
2018-07-23T22:23:43.268Z,18.70
2018-07-23T22:26:13.061Z,17.98
2018-07-23T22:28:41.129Z,18.35
2018-07-23T22:31:09.075Z,18.15
2018-07-23T22:33:37.016Z,18.57
2018-07-23T22:36:05.424Z,19.35
2018-07-23T22:38:33.360Z,19.23
2018-07-23T22:41:01.289Z,18.90
2018-07-23T22:43:29.250Z,20.55
2018-07-23T22:45:57.207Z,20.90
2018-07-23T22:48:25.121Z,20.37
2018-07-23T22:50:52.859Z,20.72
2018-07-23T22:53:20.746Z,21.62
2018-07-23T22:55:48.693Z,20.70
2018-07-23T22:58:16.609Z,21.10
2018-07-23T23:00:44.351Z,21.40
2018-07-23T23:03:12.069Z,21.85
2018-07-23T23:05:40.002Z,21.87
2018-07-23T23:08:07.947Z,21.93
2018-07-23T23:10:35.848Z,21.70
2018-07-23T23:13:03.854Z,22.82
2018-07-23T23:15:31.805Z,22.60
2018-07-23T23:17:59.761Z,22.05
2018-07-23T23:20:27.677Z,23.02
2018-07-23T23:22:55.644Z,22.60
2018-07-23T23:25:23.698Z,21.90
2018-07-23T23:27:51.622Z,23.40
2018-07-23T23:30:19.399Z,23.57
2018-07-23T23:32:47.130Z,24.45
2018-07-23T23:35:15.109Z,23.20
2018-07-23T23:37:43.001Z,22.75
2018-07-23T23:40:10.826Z,23.27
2018-07-23T23:42:38.763Z,22.37
2018-07-23T23:45:06.805Z,22.73
2018-07-23T23:47:34.520Z,23.32
2018-07-23T23:50:02.512Z,23.20
2018-07-23T23:52:30.522Z,23.52
2018-07-23T23:54:58.412Z,24.07
2018-07-23T23:57:26.332Z,24.07
2018-07-23T23:59:54.220Z,25.12
